createdAt,value
2022-12-06T00:02:09.988Z,96569.31
2022-12-06T00:05:07.364Z,96564.34
2022-12-06T00:08:04.730Z,96571.69
2022-12-06T00:11:09.928Z,96563.28
2022-12-06T00:14:08.023Z,96568.88
2022-12-06T00:17:04.897Z,96559.91
2022-12-06T00:20:01.977Z,96561.38
2022-12-06T00:22:59.176Z,96559.53
2022-12-06T00:25:56.033Z,96563.13
2022-12-06T00:29:00.829Z,96568.03
2022-12-06T00:31:57.831Z,96559.53
2022-12-06T00:34:54.782Z,96559.34
2022-12-06T00:37:51.647Z,96565.19
2022-12-06T00:40:48.598Z,96557.06
2022-12-06T00:43:46.475Z,96558.00
2022-12-06T00:46:43.415Z,96557.56
2022-12-06T00:49:40.248Z,96555.41
2022-12-06T00:52:37.114Z,96552.03
2022-12-06T00:55:33.979Z,96554.94
2022-12-06T00:58:30.919Z,96545.72
2022-12-06T01:01:31.193Z,96538.88
2022-12-06T01:04:28.082Z,96548.66
2022-12-06T01:07:25.023Z,96550.81
2022-12-06T01:10:22.601Z,96554.94
2022-12-06T01:13:19.451Z,96552.34
2022-12-06T01:16:23.938Z,96552.03
2022-12-06T01:19:20.874Z,96555.78
2022-12-06T01:22:17.770Z,96556.78
2022-12-06T01:25:14.684Z,96551.78
2022-12-06T01:28:11.505Z,96548.53
2022-12-06T01:31:08.531Z,96548.34
2022-12-06T01:34:07.671Z,96554.94
2022-12-06T01:37:04.821Z,96559.53
2022-12-06T01:40:01.841Z,96549.66
2022-12-06T01:42:58.803Z,96550.69
2022-12-06T01:45:57.087Z,96544.63
2022-12-06T01:49:12.002Z,96551.78
2022-12-06T01:52:12.708Z,96547.19
2022-12-06T01:55:10.802Z,96542.28
2022-12-06T01:58:12.658Z,96534.34
2022-12-06T02:01:10.556Z,96537.28
2022-12-06T02:04:08.737Z,96538.66
2022-12-06T02:07:07.133Z,96536.44
2022-12-06T02:10:05.197Z,96533.25
2022-12-06T02:13:02.321Z,96531.47
2022-12-06T02:16:51.547Z,96525.81
2022-12-06T02:20:11.020Z,96522.75
2022-12-06T02:23:57.742Z,96524.66
2022-12-06T02:27:44.164Z,96514.75
2022-12-06T02:31:25.806Z,96517.16
2022-12-06T02:34:30.482Z,96518.69
2022-12-06T02:37:39.080Z,96512.19
2022-12-06T02:40:45.993Z,96516.16
2022-12-06T02:43:50.298Z,96507.16
2022-12-06T02:46:48.336Z,96510.59
2022-12-06T02:49:50.107Z,96511.63
2022-12-06T02:52:52.433Z,96507.94
2022-12-06T02:55:51.491Z,96506.03
2022-12-06T02:58:48.350Z,96502.59
2022-12-06T03:01:50.232Z,96507.41
2022-12-06T03:05:05.852Z,96501.81
2022-12-06T03:08:14.440Z,96505.03
2022-12-06T03:11:12.354Z,96502.06
2022-12-06T03:14:19.420Z,96504.44
2022-12-06T03:17:52.900Z,96491.75
2022-12-06T03:21:02.671Z,96491.69
2022-12-06T03:23:59.923Z,96484.34
2022-12-06T03:26:59.293Z,96495.63
2022-12-06T03:30:01.311Z,96487.47
2022-12-06T03:32:59.078Z,96476.16
2022-12-06T03:35:58.336Z,96474.75
2022-12-06T03:39:01.043Z,96464.81
2022-12-06T03:41:59.535Z,96469.28
2022-12-06T03:44:57.187Z,96459.53
2022-12-06T03:48:10.503Z,96461.66
2022-12-06T03:51:16.249Z,96453.44
2022-12-06T03:54:13.119Z,96444.38
2022-12-06T03:57:10.758Z,96444.75
2022-12-06T04:00:08.391Z,96446.31
2022-12-06T04:03:05.623Z,96443.94
2022-12-06T04:06:06.550Z,96441.03
2022-12-06T04:09:22.385Z,96436.75
2022-12-06T04:12:38.064Z,96436.22
2022-12-06T04:15:39.971Z,96435.41
2022-12-06T04:18:36.901Z,96441.75
2022-12-06T04:21:33.751Z,96436.94
2022-12-06T04:24:30.994Z,96444.88
2022-12-06T04:27:46.432Z,96441.75
2022-12-06T04:31:02.302Z,96435.41
2022-12-06T04:34:17.746Z,96431.44
2022-12-06T04:37:32.861Z,96433.75
2022-12-06T04:40:29.749Z,96428.81
2022-12-06T04:43:44.712Z,96419.03
2022-12-06T04:46:41.631Z,96419.03
2022-12-06T04:49:39.042Z,96426.97
2022-12-06T04:52:36.449Z,96430.47
2022-12-06T04:55:33.375Z,96422.47
2022-12-06T04:58:30.287Z,96418.47
2022-12-06T05:01:27.120Z,96412.97
2022-12-06T05:04:24.308Z,96424.66
2022-12-06T05:07:21.333Z,96422.94
2022-12-06T05:10:18.285Z,96422.22
2022-12-06T05:13:17.494Z,96418.47
2022-12-06T05:16:14.730Z,96414.59
2022-12-06T05:19:14.050Z,96417.19
2022-12-06T05:22:11.204Z,96405.84
2022-12-06T05:25:08.974Z,96409.56
2022-12-06T05:28:06.584Z,96407.97
2022-12-06T05:31:03.672Z,96410.09
2022-12-06T05:34:00.621Z,96407.97
2022-12-06T05:36:57.463Z,96410.41
2022-12-06T05:39:54.299Z,96407.47
2022-12-06T05:42:51.265Z,96407.72
2022-12-06T05:45:53.799Z,96404.28
2022-12-06T05:48:50.810Z,96407.16
2022-12-06T05:51:47.714Z,96422.66
2022-12-06T05:54:44.538Z,96420.56
2022-12-06T05:57:47.098Z,96411.91
2022-12-06T06:00:50.703Z,96419.78
2022-12-06T06:03:48.159Z,96415.63
2022-12-06T06:06:45.097Z,96410.88
2022-12-06T06:09:42.122Z,96406.91
2022-12-06T06:12:39.400Z,96406.47
2022-12-06T06:15:36.287Z,96408.00
2022-12-06T06:18:33.181Z,96412.19
2022-12-06T06:21:30.126Z,96404.78
2022-12-06T06:24:26.933Z,96403.47
2022-12-06T06:27:23.801Z,96405.59
2022-12-06T06:30:21.607Z,96398.47
2022-12-06T06:33:18.581Z,96400.06
2022-12-06T06:36:27.287Z,96397.78
2022-12-06T06:39:24.124Z,96396.91
2022-12-06T06:42:21.118Z,96396.09
2022-12-06T06:45:17.948Z,96398.50
2022-12-06T06:48:14.794Z,96398.19
2022-12-06T06:51:14.599Z,96405.88
2022-12-06T06:54:12.615Z,96403.75
2022-12-06T06:57:14.262Z,96402.84
2022-12-06T07:00:15.113Z,96404.44
2022-12-06T07:03:16.159Z,96399.78
2022-12-06T07:06:13.158Z,96395.66
2022-12-06T07:09:11.027Z,96400.44
2022-12-06T07:12:08.132Z,96399.09
2022-12-06T07:15:06.664Z,96403.31
2022-12-06T07:18:03.668Z,96412.84
2022-12-06T07:21:06.471Z,96402.75
2022-12-06T07:24:03.415Z,96415.25
2022-12-06T07:27:00.448Z,96411.47
2022-12-06T07:29:57.366Z,96419.69
2022-12-06T07:32:55.033Z,96413.59
2022-12-06T07:39:14.804Z,96409.31
2022-12-06T07:42:30.569Z,96408.84
2022-12-06T07:45:27.957Z,96420.91
2022-12-06T07:48:25.152Z,96413.88
2022-12-06T07:51:21.955Z,96403.31
2022-12-06T07:54:18.850Z,96411.13
2022-12-06T07:57:15.918Z,96410.47
2022-12-06T08:00:16.083Z,96415.13
2022-12-06T08:03:13.012Z,96417.44
2022-12-06T08:06:09.990Z,96421.88
2022-12-06T08:09:07.681Z,96429.25
2022-12-06T08:12:04.979Z,96434.25
2022-12-06T08:15:01.828Z,96425.47
2022-12-06T08:17:58.827Z,96415.63
2022-12-06T08:20:55.808Z,96424.88
2022-12-06T08:23:54.397Z,96421.66
2022-12-06T08:26:52.544Z,96431.44
2022-12-06T08:29:49.443Z,96429.72
2022-12-06T08:32:46.289Z,96431.78
2022-12-06T08:35:43.107Z,96434.63
2022-12-06T08:38:40.592Z,96430.16
2022-12-06T08:41:55.942Z,96438.03
2022-12-06T08:44:54.437Z,96440.94
2022-12-06T08:47:51.363Z,96436.91
2022-12-06T08:50:48.249Z,96433.34
2022-12-06T08:53:45.250Z,96443.97
2022-12-06T08:56:42.883Z,96445.44
2022-12-06T08:59:39.924Z,96443.97
2022-12-06T09:02:40.414Z,96446.09
2022-12-06T09:05:37.341Z,96439.91
2022-12-06T09:08:34.546Z,96443.84
2022-12-06T09:11:31.447Z,96454.19
2022-12-06T09:14:28.287Z,96453.31
2022-12-06T09:17:25.152Z,96450.09
2022-12-06T09:20:22.391Z,96446.59
2022-12-06T09:23:19.284Z,96452.38
2022-12-06T09:26:16.708Z,96459.78
2022-12-06T09:29:14.415Z,96452.81
2022-12-06T09:32:11.264Z,96461.94
2022-12-06T09:35:14.956Z,96460.88
2022-12-06T09:38:13.435Z,96459.28
2022-12-06T09:41:47.083Z,96466.25
2022-12-06T09:45:34.895Z,96459.53
2022-12-06T09:48:45.648Z,96466.16
2022-12-06T09:52:20.688Z,96466.03
2022-12-06T09:55:42.046Z,96464.75
2022-12-06T09:59:06.191Z,96467.75
2022-12-06T10:02:27.145Z,96464.63
2022-12-06T10:06:01.718Z,96462.56
2022-12-06T10:09:20.031Z,96465.75
2022-12-06T10:13:12.066Z,96450.84
2022-12-06T10:16:34.521Z,96450.75
2022-12-06T10:19:50.799Z,96449.72
2022-12-06T10:23:12.607Z,96450.69
2022-12-06T10:26:29.625Z,96450.88
2022-12-06T10:29:54.398Z,96450.03
2022-12-06T10:32:57.663Z,96446.84
2022-12-06T10:36:01.260Z,96447.22
2022-12-06T10:39:22.551Z,96453.09
2022-12-06T10:42:55.517Z,96453.78
2022-12-06T10:46:58.086Z,96449.56
2022-12-06T10:50:00.553Z,96436.03
2022-12-06T10:53:15.583Z,96435.19
2022-12-06T10:56:23.019Z,96438.16
2022-12-06T11:00:13.317Z,96440.59
2022-12-06T11:03:50.173Z,96443.47
2022-12-06T11:06:55.303Z,96446.28
2022-12-06T11:09:56.354Z,96440.47
2022-12-06T11:13:22.441Z,96434.59
2022-12-06T11:16:28.275Z,96431.63
2022-12-06T11:19:50.830Z,96429.00
2022-12-06T11:23:06.648Z,96434.25
2022-12-06T11:26:32.002Z,96435.13
2022-12-06T11:29:28.998Z,96432.66
2022-12-06T11:32:26.183Z,96427.41
2022-12-06T11:35:26.448Z,96427.59
2022-12-06T11:38:23.631Z,96424.28
2022-12-06T11:41:29.823Z,96426.84
2022-12-06T11:44:38.469Z,96427.75
2022-12-06T11:47:35.477Z,96425.56
2022-12-06T11:50:33.416Z,96422.69
2022-12-06T11:54:03.601Z,96423.16
2022-12-06T11:57:15.742Z,96418.28
2022-12-06T12:00:26.215Z,96413.56
2022-12-06T12:03:36.088Z,96412.31
2022-12-06T12:06:33.503Z,96406.00
2022-12-06T12:09:50.309Z,96414.94
2022-12-06T12:13:08.051Z,96409.81
2022-12-06T12:16:28.413Z,96400.63
2022-12-06T12:19:45.474Z,96411.16
2022-12-06T12:22:43.324Z,96411.47
2022-12-06T12:25:42.403Z,96400.53
2022-12-06T12:28:41.497Z,96401.66
2022-12-06T12:31:56.063Z,96401.28
2022-12-06T12:34:53.041Z,96392.53
2022-12-06T12:37:56.167Z,96401.47
2022-12-06T12:41:02.148Z,96390.13
2022-12-06T12:44:37.461Z,96397.00
2022-12-06T12:47:36.383Z,96392.47
2022-12-06T12:50:33.317Z,96398.22
2022-12-06T12:53:36.199Z,96388.09
2022-12-06T12:56:37.202Z,96394.16
2022-12-06T12:59:40.192Z,96385.69
2022-12-06T13:02:38.504Z,96392.47
2022-12-06T13:05:44.893Z,96386.78
2022-12-06T13:08:44.458Z,96389.44
2022-12-06T13:11:52.398Z,96388.44
2022-12-06T13:15:04.609Z,96389.06
2022-12-06T13:18:24.982Z,96379.28
2022-12-06T13:21:30.602Z,96386.84
2022-12-06T13:24:34.753Z,96388.81
2022-12-06T13:27:40.792Z,96389.75
2022-12-06T13:30:41.846Z,96395.53
2022-12-06T13:33:49.367Z,96398.03
2022-12-06T13:36:46.712Z,96397.69
2022-12-06T13:39:50.026Z,96400.22
2022-12-06T13:42:47.020Z,96391.66
2022-12-06T13:45:48.611Z,96391.22
2022-12-06T13:48:54.951Z,96395.22
2022-12-06T13:51:51.931Z,96394.81
2022-12-06T13:54:48.763Z,96403.75
2022-12-06T13:57:45.642Z,96401.06
2022-12-06T14:00:42.423Z,96397.81
2022-12-06T14:03:40.959Z,96397.31
2022-12-06T14:06:45.415Z,96411.03
2022-12-06T14:09:47.069Z,96401.06
2022-12-06T14:12:44.371Z,96394.22
2022-12-06T14:15:52.186Z,96404.91
2022-12-06T14:18:49.890Z,96396.41
2022-12-06T14:22:02.319Z,96398.16
2022-12-06T14:25:25.422Z,96400.53
2022-12-06T14:28:22.292Z,96398.41
2022-12-06T14:31:41.879Z,96402.03
2022-12-06T14:34:38.851Z,96404.66
2022-12-06T14:37:36.247Z,96403.31
2022-12-06T14:40:59.429Z,96408.53
2022-12-06T14:43:56.287Z,96399.28
2022-12-06T14:46:54.555Z,96412.94
2022-12-06T14:50:16.884Z,96405.09
2022-12-06T14:53:27.802Z,96405.22
2022-12-06T14:56:35.766Z,96412.09
2022-12-06T15:00:12.858Z,96409.22
2022-12-06T15:03:08.398Z,96413.94
2022-12-06T15:06:23.306Z,96410.00
2022-12-06T15:09:22.028Z,96408.88
2022-12-06T15:12:41.662Z,96415.16
2022-12-06T15:15:43.650Z,96421.88
2022-12-06T15:19:00.835Z,96417.03
2022-12-06T15:21:57.747Z,96405.78
2022-12-06T15:25:00.008Z,96408.59
2022-12-06T15:27:56.858Z,96402.22
2022-12-06T15:30:54.009Z,96407.91
2022-12-06T15:33:50.994Z,96406.13
2022-12-06T15:36:47.879Z,96413.19
2022-12-06T15:39:45.173Z,96413.06
2022-12-06T15:42:42.006Z,96411.47
2022-12-06T15:45:39.326Z,96418.75
2022-12-06T15:48:36.858Z,96414.34
2022-12-06T15:51:33.687Z,96427.66
2022-12-06T15:54:30.789Z,96422.72
2022-12-06T15:57:27.621Z,96423.44
2022-12-06T16:00:24.511Z,96429.94
2022-12-06T16:03:21.413Z,96433.41
2022-12-06T16:06:20.777Z,96429.13
2022-12-06T16:09:19.362Z,96419.69
2022-12-06T16:12:16.797Z,96422.38
2022-12-06T16:15:13.698Z,96434.66
2022-12-06T16:18:10.573Z,96425.06
2022-12-06T16:21:07.480Z,96421.09
2022-12-06T16:24:14.505Z,96414.59
2022-12-06T16:27:11.796Z,96423.47
2022-12-06T16:30:09.662Z,96426.00
2022-12-06T16:33:07.733Z,96422.25
2022-12-06T16:36:19.827Z,96422.38
2022-12-06T16:39:16.767Z,96416.88
2022-12-06T16:42:13.658Z,96425.50
2022-12-06T16:45:11.030Z,96426.06
2022-12-06T16:48:18.162Z,96424.53
2022-12-06T16:51:15.199Z,96421.28
2022-12-06T16:54:12.056Z,96428.13
2022-12-06T16:57:13.271Z,96425.56
2022-12-06T17:00:12.742Z,96419.25
2022-12-06T17:03:11.400Z,96417.38
2022-12-06T17:06:08.667Z,96421.38
2022-12-06T17:09:06.176Z,96416.25
2022-12-06T17:12:03.050Z,96421.38
2022-12-06T17:15:00.351Z,96428.88
2022-12-06T17:17:57.632Z,96425.56
2022-12-06T17:20:54.494Z,96420.91
2022-12-06T17:23:51.397Z,96413.41
2022-12-06T17:26:48.752Z,96416.00
2022-12-06T17:29:45.799Z,96417.78
2022-12-06T17:32:42.654Z,96412.47
2022-12-06T17:35:39.462Z,96414.34
2022-12-06T17:38:37.238Z,96414.59
2022-12-06T17:41:52.780Z,96414.84
2022-12-06T17:44:51.661Z,96413.38
2022-12-06T17:47:48.531Z,96408.53
2022-12-06T17:50:45.421Z,96412.47
2022-12-06T17:53:42.318Z,96417.16
2022-12-06T17:56:45.875Z,96420.13
2022-12-06T17:59:43.061Z,96408.72
2022-12-06T18:02:40.025Z,96412.22
2022-12-06T18:05:36.915Z,96420.13
2022-12-06T18:08:33.764Z,96420.78
2022-12-06T18:11:35.053Z,96425.25
2022-12-06T18:14:32.027Z,96426.81
2022-12-06T18:17:28.846Z,96417.41
2022-12-06T18:20:25.693Z,96414.28
2022-12-06T18:23:22.569Z,96418.91
2022-12-06T18:26:21.176Z,96422.34
2022-12-06T18:29:23.456Z,96420.78
2022-12-06T18:32:20.384Z,96414.63
2022-12-06T18:35:17.257Z,96419.00
2022-12-06T18:38:14.110Z,96406.00
2022-12-06T18:41:16.670Z,96406.69
2022-12-06T18:44:13.783Z,96414.06
2022-12-06T18:47:10.618Z,96415.66
2022-12-06T18:50:10.311Z,96412.47
2022-12-06T18:53:07.493Z,96411.66
2022-12-06T18:56:09.270Z,96412.22
2022-12-06T18:59:08.638Z,96406.63
2022-12-06T19:02:05.559Z,96413.44
2022-12-06T19:05:02.720Z,96408.34
2022-12-06T19:07:59.935Z,96404.28
2022-12-06T19:11:02.132Z,96407.50
2022-12-06T19:14:00.779Z,96398.53
2022-12-06T19:16:58.307Z,96401.53
2022-12-06T19:19:55.295Z,96408.50
2022-12-06T19:22:52.135Z,96419.03
2022-12-06T19:25:49.000Z,96426.44
2022-12-06T19:28:45.954Z,96418.13
2022-12-06T19:31:43.355Z,96428.06
2022-12-06T19:34:40.223Z,96423.41
2022-12-06T19:37:37.112Z,96418.38
2022-12-06T19:40:34.169Z,96414.16
2022-12-06T19:43:50.279Z,96421.19
2022-12-06T19:46:48.271Z,96417.28
2022-12-06T19:49:45.511Z,96409.00
2022-12-06T19:52:42.359Z,96413.72
2022-12-06T19:55:45.000Z,96412.59
2022-12-06T19:58:42.341Z,96416.66
2022-12-06T20:01:42.733Z,96415.03
2022-12-06T20:04:41.775Z,96425.94
2022-12-06T20:07:38.684Z,96425.16
2022-12-06T20:10:37.188Z,96412.75
2022-12-06T20:13:34.991Z,96412.81
2022-12-06T20:16:33.033Z,96410.13
2022-12-06T20:19:30.322Z,96412.53
2022-12-06T20:22:27.171Z,96410.84
2022-12-06T20:25:24.039Z,96411.72
2022-12-06T20:28:21.240Z,96416.75
2022-12-06T20:31:23.064Z,96420.44
2022-12-06T20:34:20.258Z,96422.19
2022-12-06T20:37:17.089Z,96411.66
2022-12-06T20:40:14.236Z,96413.34
2022-12-06T20:43:11.077Z,96406.38
2022-12-06T20:46:15.352Z,96411.97
2022-12-06T20:49:12.886Z,96404.28
2022-12-06T20:52:09.763Z,96409.63
2022-12-06T20:55:06.959Z,96405.44
2022-12-06T20:58:03.887Z,96406.19
2022-12-06T21:01:01.916Z,96399.59
2022-12-06T21:04:00.143Z,96403.13
2022-12-06T21:06:57.494Z,96406.56
2022-12-06T21:09:54.336Z,96413.69
2022-12-06T21:12:51.212Z,96397.63
2022-12-06T21:15:50.250Z,96410.34
2022-12-06T21:18:49.229Z,96408.28
2022-12-06T21:21:51.233Z,96409.34
2022-12-06T21:24:48.303Z,96408.66
2022-12-06T21:27:45.184Z,96404.19
2022-12-06T21:30:42.062Z,96397.31
2022-12-06T21:33:38.995Z,96409.09
2022-12-06T21:36:36.609Z,96416.19
2022-12-06T21:39:33.555Z,96408.59
2022-12-06T21:42:30.612Z,96408.84
2022-12-06T21:45:27.460Z,96406.03
2022-12-06T21:48:24.294Z,96411.22
2022-12-06T21:51:22.326Z,96411.41
2022-12-06T21:54:19.172Z,96414.28
2022-12-06T21:57:16.259Z,96420.06
2022-12-06T22:00:15.268Z,96421.19
2022-12-06T22:03:14.322Z,96418.63
2022-12-06T22:06:15.100Z,96408.34
2022-12-06T22:09:11.965Z,96413.28
2022-12-06T22:12:08.944Z,96411.81
2022-12-06T22:15:06.641Z,96411.03
2022-12-06T22:18:03.739Z,96412.91
2022-12-06T22:21:04.329Z,96414.81
2022-12-06T22:24:01.200Z,96421.44
2022-12-06T22:26:58.122Z,96416.34
2022-12-06T22:29:55.020Z,96423.94
2022-12-06T22:32:52.019Z,96418.78
2022-12-06T22:35:48.832Z,96429.19
2022-12-06T22:38:53.463Z,96426.06
2022-12-06T22:41:50.314Z,96424.88
2022-12-06T22:44:48.059Z,96420.09
2022-12-06T22:47:46.404Z,96410.34
2022-12-06T22:50:43.326Z,96428.25
2022-12-06T22:53:42.907Z,96420.44
2022-12-06T22:56:48.175Z,96419.97
2022-12-06T22:59:45.053Z,96415.59
2022-12-06T23:02:41.891Z,96416.94
2022-12-06T23:05:38.771Z,96420.44
2022-12-06T23:08:36.464Z,96420.59
2022-12-06T23:11:36.274Z,96408.47
2022-12-06T23:14:33.197Z,96397.41
2022-12-06T23:17:30.087Z,96407.88
2022-12-06T23:20:26.913Z,96414.84
2022-12-06T23:23:23.755Z,96410.22
2022-12-06T23:26:28.453Z,96419.94
2022-12-06T23:29:25.313Z,96409.31
2022-12-06T23:32:22.164Z,96410.06
2022-12-06T23:35:19.113Z,96411.50
2022-12-06T23:38:15.960Z,96420.25
2022-12-06T23:41:22.251Z,96428.00
2022-12-06T23:44:19.162Z,96420.25
2022-12-06T23:47:15.999Z,96423.44
2022-12-06T23:50:12.903Z,96391.72
2022-12-06T23:53:09.734Z,96394.00
2022-12-06T23:56:15.963Z,96376.63
2022-12-06T23:59:14.736Z,96381.28
